Accueil
METAR-TAF:

METAR-TAF

Aéroports :

Pampelune, Espagne

Aéroport de Pampelune

latitude: 42-46N, longitude: 001-38W, altitude: 459 m

Observation

Le bulletin a été fait il y a 23 minutes, à 08:00 UTC
Vent calme
Température 6°C
Humidité 87%
Pression 1023 hPa
Visibilité 10 km ou plus
pas de nuages en-dessous de 1500 mètres et pas de cumulonimbus.

METAR: LEPP 180800Z 00000KT CAVOK 06/04 Q1023

Heure: 09:23 (08:23 UTC)

Prévision

Le bulletin a été fait il y a 6 heures et 23 minutes, à 02:00 UTC
Prévision valable du 18 à 03 UTC au 19 à 03 UTC
Vent 8 kt de nord/nord-ouest
Visibilité 10 km ou plus
Quelques nuages à une hauteur de 3000 ft
Probabilité 40% :
Temporairement
du 18 à 11 UTC au 18 à 18 UTC
Vent 18 kt de nord/nord-ouest

TAF: LEPP 180200Z 1803/1903 34008KT 9999 FEW030 TX13/1814Z TN03/1903Z PROB40 TEMPO 1811/1818 33018KT

Observations et prévisions météorologiques de plus de 4000 aéroports (messages METAR et TAF).

Les stations disponibles sont représentées par des disques jaunes et rouges sur la carte.

Passer la souris dessus pour voir le nom de la station.

Cliquer dessus pour voir les observations et prévisions météorologiques.

Pour changer de carte: cliquez sur les boutons verts avec une croix noire pour zoomer, sur le bouton vert avec un tiret pour effectuer un zoom arrière, ou sur les flèches vertes pour les cartes adjacentes.


METAR-TAF: